createdAt,value
2019-03-26T00:04:43.766Z,7.40
2019-03-26T00:09:54.738Z,9.53
2019-03-26T00:15:00.433Z,7.97
2019-03-26T00:20:05.661Z,9.50
2019-03-26T00:25:10.610Z,7.72
2019-03-26T00:30:15.686Z,10.57
2019-03-26T00:35:21.051Z,11.10
2019-03-26T00:40:26.311Z,7.77
2019-03-26T00:45:31.593Z,8.70
2019-03-26T00:50:37.018Z,8.68
2019-03-26T00:55:41.921Z,8.73
2019-03-26T01:00:47.368Z,9.07
2019-03-26T01:05:53.705Z,8.67
2019-03-26T01:11:01.981Z,9.23
2019-03-26T01:16:07.394Z,9.57
2019-03-26T01:21:12.911Z,11.53
2019-03-26T01:26:18.451Z,8.93
2019-03-26T01:31:24.068Z,8.07
2019-03-26T01:36:29.493Z,9.17
2019-03-26T01:41:34.565Z,11.37
2019-03-26T01:46:39.985Z,9.20
2019-03-26T01:51:45.179Z,15.03
2019-03-26T01:56:53.566Z,9.77
2019-03-26T02:01:59.323Z,10.97
2019-03-26T02:07:04.705Z,11.67
2019-03-26T02:12:10.480Z,9.80
2019-03-26T02:17:15.867Z,11.63
2019-03-26T02:22:20.900Z,9.47
2019-03-26T02:27:27.182Z,11.00
2019-03-26T02:32:32.664Z,12.37
2019-03-26T02:37:38.216Z,13.05
2019-03-26T02:42:45.898Z,14.63
2019-03-26T02:47:51.174Z,15.70
2019-03-26T02:52:56.336Z,11.03
2019-03-26T02:58:01.766Z,11.77
2019-03-26T03:03:07.902Z,14.93
2019-03-26T03:08:12.939Z,11.73
2019-03-26T03:13:18.292Z,12.93
2019-03-26T03:18:23.313Z,14.27
2019-03-26T03:23:28.560Z,13.57
2019-03-26T03:28:34.903Z,13.03
2019-03-26T03:33:40.892Z,12.07
2019-03-26T03:38:45.851Z,11.83
2019-03-26T03:43:50.949Z,17.60
2019-03-26T03:48:56.955Z,12.67
2019-03-26T03:54:03.336Z,17.37
2019-03-26T03:59:11.073Z,10.27
2019-03-26T04:04:16.975Z,12.77
2019-03-26T04:09:23.067Z,13.07
2019-03-26T04:14:29.503Z,10.17
2019-03-26T04:19:34.913Z,12.50
2019-03-26T04:24:40.632Z,12.37
2019-03-26T04:29:45.877Z,11.40
2019-03-26T04:34:50.858Z,16.37
2019-03-26T04:39:56.096Z,13.60
2019-03-26T04:45:01.935Z,17.63
2019-03-26T04:50:07.694Z,16.47
2019-03-26T04:55:13.010Z,15.40
2019-03-26T05:00:19.212Z,11.73
2019-03-26T05:05:24.684Z,13.20
2019-03-26T05:10:30.018Z,13.87
2019-03-26T05:15:35.095Z,14.37
2019-03-26T05:20:40.429Z,12.83
2019-03-26T05:25:45.810Z,13.00
2019-03-26T05:30:51.202Z,14.43
2019-03-26T05:35:57.106Z,10.93
2019-03-26T05:41:02.616Z,11.93
2019-03-26T05:46:09.050Z,15.40
2019-03-26T05:51:14.266Z,10.38
2019-03-26T05:56:19.657Z,12.93
2019-03-26T06:01:30.697Z,16.80
2019-03-26T06:06:36.212Z,9.73
2019-03-26T06:11:41.434Z,13.87
2019-03-26T06:16:47.107Z,13.10
2019-03-26T06:21:58.686Z,11.03
2019-03-26T06:27:08.925Z,10.07
2019-03-26T06:32:14.876Z,15.67
2019-03-26T06:37:27.990Z,11.93
2019-03-26T06:42:35.045Z,33.20
2019-03-26T06:47:40.151Z,38.20
2019-03-26T06:52:45.984Z,51.68
2019-03-26T06:57:50.999Z,11.47
2019-03-26T07:02:56.168Z,43.30
2019-03-26T07:08:01.866Z,14.40
2019-03-26T07:13:07.147Z,20.47
2019-03-26T07:18:12.369Z,15.80
2019-03-26T07:23:17.393Z,11.50
2019-03-26T07:28:22.843Z,24.82
2019-03-26T07:33:28.095Z,13.77
2019-03-26T07:38:33.400Z,16.80
2019-03-26T07:43:39.154Z,15.83
2019-03-26T07:48:44.443Z,13.40
2019-03-26T07:53:49.857Z,14.13
2019-03-26T07:58:56.426Z,12.27
2019-03-26T08:04:01.796Z,14.50
2019-03-26T08:09:07.641Z,12.23
2019-03-26T08:14:13.373Z,13.13
2019-03-26T08:19:18.299Z,13.83
2019-03-26T08:24:23.361Z,11.97
2019-03-26T08:29:28.693Z,14.37
2019-03-26T08:34:33.639Z,19.60
2019-03-26T08:39:40.221Z,9.40
2019-03-26T08:44:45.215Z,9.50
2019-03-26T08:49:50.687Z,15.85
2019-03-26T08:54:55.521Z,15.77
2019-03-26T09:00:00.983Z,11.57
2019-03-26T09:05:09.273Z,12.03
2019-03-26T09:10:15.362Z,11.87
2019-03-26T09:15:21.407Z,10.82
2019-03-26T09:20:26.751Z,9.97
2019-03-26T09:25:33.207Z,9.03
2019-03-26T09:30:38.298Z,9.73
2019-03-26T09:35:43.297Z,10.70
2019-03-26T09:40:48.300Z,16.10
2019-03-26T09:45:53.944Z,8.48
2019-03-26T09:50:59.512Z,10.13
2019-03-26T09:56:05.298Z,7.80
2019-03-26T10:01:10.353Z,7.77
2019-03-26T10:06:23.411Z,11.70
2019-03-26T10:11:22.380Z,9.37
2019-03-26T10:16:28.063Z,12.37
2019-03-26T10:21:35.149Z,10.10
2019-03-26T10:26:40.728Z,8.68
2019-03-26T10:31:45.867Z,11.07
2019-03-26T10:36:51.134Z,11.37
2019-03-26T10:41:56.302Z,8.40
2019-03-26T10:47:01.994Z,11.33
2019-03-26T10:52:07.266Z,12.00
2019-03-26T10:57:12.686Z,12.10
2019-03-26T11:02:18.136Z,9.57
2019-03-26T11:07:23.736Z,12.03
2019-03-26T11:12:29.136Z,10.17
2019-03-26T11:17:34.419Z,11.33
2019-03-26T11:22:39.528Z,10.70
2019-03-26T11:27:44.768Z,8.70
2019-03-26T11:32:49.763Z,7.03
2019-03-26T11:37:55.174Z,7.72
2019-03-26T11:43:00.044Z,7.63
2019-03-26T11:48:05.074Z,6.90
2019-03-26T11:53:10.942Z,10.03
2019-03-26T11:58:29.556Z,10.30
2019-03-26T12:03:23.499Z,9.13
2019-03-26T12:08:29.706Z,8.57
2019-03-26T12:13:35.306Z,9.07
2019-03-26T12:18:42.340Z,7.93
2019-03-26T12:23:47.732Z,10.93
2019-03-26T12:28:52.677Z,8.60
2019-03-26T12:34:00.040Z,8.10
2019-03-26T12:39:07.692Z,10.00
2019-03-26T12:44:16.254Z,9.37
2019-03-26T12:49:21.734Z,10.37
2019-03-26T12:54:26.998Z,7.80
2019-03-26T12:59:32.816Z,10.33
2019-03-26T13:04:37.762Z,9.40
2019-03-26T13:09:43.720Z,8.57
2019-03-26T13:14:49.615Z,9.27
2019-03-26T13:20:05.005Z,9.50
2019-03-26T13:25:10.272Z,7.93
2019-03-26T13:30:15.599Z,7.47
2019-03-26T13:35:23.306Z,8.03
2019-03-26T13:40:28.325Z,10.80
2019-03-26T13:45:33.650Z,8.90
2019-03-26T13:50:39.156Z,13.20
2019-03-26T13:55:45.719Z,7.10
2019-03-26T14:00:50.955Z,9.20
2019-03-26T14:05:56.056Z,13.50
2019-03-26T14:11:01.774Z,8.20
2019-03-26T14:16:06.870Z,10.40
2019-03-26T14:21:13.362Z,8.63
2019-03-26T14:26:19.037Z,9.27
2019-03-26T14:31:24.560Z,6.83
2019-03-26T14:36:29.797Z,10.17
2019-03-26T14:41:35.086Z,5.47
2019-03-26T14:46:40.577Z,5.53
2019-03-26T14:51:46.082Z,5.90
2019-03-26T14:56:51.368Z,5.83
2019-03-26T15:01:56.642Z,5.13
2019-03-26T15:07:02.525Z,4.97
2019-03-26T15:12:07.984Z,7.90
2019-03-26T15:17:16.006Z,5.93
2019-03-26T15:22:21.318Z,6.93
2019-03-26T15:27:28.927Z,6.57
2019-03-26T15:32:34.223Z,10.60
2019-03-26T15:37:39.723Z,4.27
2019-03-26T15:42:44.794Z,5.43
2019-03-26T15:47:49.891Z,8.97
2019-03-26T15:52:55.502Z,5.17
2019-03-26T15:58:00.624Z,6.12
2019-03-26T16:03:06.135Z,3.90
2019-03-26T16:08:11.184Z,4.63
2019-03-26T16:13:16.471Z,4.40
2019-03-26T16:18:22.047Z,5.83
2019-03-26T16:23:27.486Z,4.00
2019-03-26T16:28:32.498Z,2.90
2019-03-26T16:33:38.861Z,3.03
2019-03-26T16:38:44.185Z,5.97
2019-03-26T16:43:49.845Z,8.93
2019-03-26T16:48:54.959Z,3.67
2019-03-26T16:54:00.329Z,6.10
2019-03-26T16:59:05.553Z,5.93
2019-03-26T17:04:11.383Z,4.30
2019-03-26T17:09:18.955Z,7.93
2019-03-26T17:14:29.508Z,3.63
2019-03-26T17:19:34.957Z,7.93
2019-03-26T17:24:40.723Z,4.73
2019-03-26T17:29:46.751Z,5.80
2019-03-26T17:34:52.045Z,13.10
2019-03-26T17:39:57.628Z,28.90
2019-03-26T17:45:03.221Z,37.35
2019-03-26T17:50:09.857Z,19.23
2019-03-26T17:55:15.325Z,26.37
2019-03-26T18:00:26.506Z,23.33
2019-03-26T18:05:32.079Z,25.27
2019-03-26T18:10:38.100Z,19.90
2019-03-26T18:15:47.195Z,29.73
2019-03-26T18:20:53.016Z,25.80
2019-03-26T18:25:59.814Z,31.53
2019-03-26T18:31:05.119Z,26.77
2019-03-26T18:36:10.686Z,29.13
2019-03-26T18:41:15.987Z,39.37
2019-03-26T18:46:21.704Z,38.43
2019-03-26T18:51:27.320Z,23.17
2019-03-26T18:56:33.531Z,28.80
2019-03-26T19:01:40.272Z,20.63
2019-03-26T19:06:46.954Z,19.73
2019-03-26T19:11:52.155Z,18.47
2019-03-26T19:16:58.619Z,21.37
2019-03-26T19:22:04.847Z,17.23
2019-03-26T19:27:13.672Z,24.80
2019-03-26T19:32:19.304Z,23.67
2019-03-26T19:37:26.287Z,19.00
2019-03-26T19:42:32.493Z,16.35
2019-03-26T19:47:37.767Z,17.87
2019-03-26T19:52:44.582Z,20.67
2019-03-26T19:57:50.570Z,20.23
2019-03-26T20:02:56.146Z,19.02
2019-03-26T20:08:03.466Z,22.87
2019-03-26T20:13:08.611Z,19.40
2019-03-26T20:18:14.525Z,21.87
2019-03-26T20:23:20.639Z,17.50
2019-03-26T20:28:26.855Z,18.90
2019-03-26T20:33:33.121Z,16.47
2019-03-26T20:38:41.037Z,19.47
2019-03-26T20:43:47.499Z,18.37
2019-03-26T20:48:52.899Z,22.80
2019-03-26T20:53:58.911Z,19.27
2019-03-26T20:59:04.658Z,19.73
2019-03-26T21:04:10.504Z,21.97
2019-03-26T21:09:16.672Z,23.27
2019-03-26T21:14:22.159Z,20.00
2019-03-26T21:19:27.317Z,20.67
2019-03-26T21:24:32.351Z,20.57
2019-03-26T21:29:41.173Z,21.37
2019-03-26T21:34:46.887Z,22.93
2019-03-26T21:39:52.237Z,16.23
2019-03-26T21:45:00.557Z,23.00
2019-03-26T21:50:07.247Z,19.77
2019-03-26T21:55:13.592Z,27.82
2019-03-26T22:00:19.394Z,20.57
2019-03-26T22:05:25.373Z,22.47
2019-03-26T22:10:30.584Z,22.40
2019-03-26T22:15:36.004Z,19.07
2019-03-26T22:20:46.005Z,19.57
2019-03-26T22:25:53.449Z,21.45
2019-03-26T22:30:58.715Z,23.63
2019-03-26T22:36:04.570Z,19.75
2019-03-26T22:41:09.787Z,21.17
2019-03-26T22:46:15.131Z,19.80
2019-03-26T22:51:20.370Z,19.93
2019-03-26T22:56:25.349Z,26.67
2019-03-26T23:01:30.695Z,19.60
2019-03-26T23:06:36.190Z,20.93
2019-03-26T23:11:41.570Z,26.30
2019-03-26T23:16:47.034Z,20.20
2019-03-26T23:21:52.702Z,22.65
2019-03-26T23:26:57.835Z,25.47
2019-03-26T23:32:03.789Z,23.30
2019-03-26T23:37:10.696Z,23.77
2019-03-26T23:42:17.062Z,20.40
2019-03-26T23:47:24.953Z,19.40
2019-03-26T23:52:30.454Z,21.70
2019-03-26T23:57:37.358Z,22.53
